createdAt,value
2023-02-11T00:00:12.850Z,23.00
2023-02-11T00:02:39.325Z,24.73
2023-02-11T00:05:06.563Z,25.40
2023-02-11T00:07:34.397Z,24.70
2023-02-11T00:10:02.866Z,26.97
2023-02-11T00:12:29.474Z,26.30
2023-02-11T00:14:55.989Z,26.70
2023-02-11T00:17:22.740Z,26.33
2023-02-11T00:19:50.820Z,24.40
2023-02-11T00:22:17.671Z,24.90
2023-02-11T00:24:44.322Z,26.00
2023-02-11T00:27:10.917Z,24.37
2023-02-11T00:29:38.404Z,25.50
2023-02-11T00:32:05.659Z,25.50
2023-02-11T00:34:33.216Z,25.47
2023-02-11T00:37:02.613Z,25.73
2023-02-11T00:39:29.363Z,25.53
2023-02-11T00:41:56.061Z,25.27
2023-02-11T00:44:22.528Z,26.30
2023-02-11T00:46:49.559Z,25.60
2023-02-11T00:49:16.054Z,27.13
2023-02-11T00:51:42.505Z,28.17
2023-02-11T00:54:09.315Z,27.70
2023-02-11T00:56:35.981Z,28.70
2023-02-11T00:59:02.424Z,28.67
2023-02-11T01:01:28.919Z,27.90
2023-02-11T01:03:55.404Z,27.73
2023-02-11T01:06:23.132Z,26.83
2023-02-11T01:08:49.687Z,27.13
2023-02-11T01:11:20.550Z,26.60
2023-02-11T01:13:48.870Z,26.07
2023-02-11T01:16:16.309Z,27.60
2023-02-11T01:18:44.245Z,28.27
2023-02-11T01:21:11.166Z,26.80
2023-02-11T01:23:37.619Z,26.37
2023-02-11T01:26:05.136Z,28.07
2023-02-11T01:28:32.254Z,25.73
2023-02-11T01:31:01.812Z,24.77
2023-02-11T01:33:28.724Z,23.53
2023-02-11T01:35:55.194Z,23.37
2023-02-11T01:38:24.868Z,24.73
2023-02-11T01:41:02.326Z,24.80
2023-02-11T01:43:34.710Z,24.07
2023-02-11T01:46:07.516Z,23.90
2023-02-11T01:48:38.678Z,23.77
2023-02-11T01:51:28.806Z,24.13
2023-02-11T01:54:15.625Z,23.97
2023-02-11T01:57:05.093Z,24.07
2023-02-11T01:59:41.486Z,23.50
2023-02-11T02:02:11.996Z,25.10
2023-02-11T02:04:46.641Z,23.80
2023-02-11T02:07:24.326Z,24.67
2023-02-11T02:09:58.225Z,23.57
2023-02-11T02:12:24.651Z,24.23
2023-02-11T02:14:51.115Z,25.60
2023-02-11T02:17:38.259Z,25.27
2023-02-11T02:20:29.979Z,25.67
2023-02-11T02:22:59.492Z,24.60
2023-02-11T02:25:53.865Z,24.60
2023-02-11T02:28:38.287Z,24.23
2023-02-11T02:31:35.658Z,21.57
2023-02-11T02:34:09.297Z,22.27
2023-02-11T02:36:59.094Z,22.87
2023-02-11T02:39:29.388Z,22.47
2023-02-11T02:41:56.798Z,22.07
2023-02-11T02:44:23.932Z,21.23
2023-02-11T02:46:50.534Z,22.67
2023-02-11T02:49:17.838Z,23.17
2023-02-11T02:51:59.945Z,23.30
2023-02-11T02:55:00.609Z,22.93
2023-02-11T02:57:36.166Z,21.30
2023-02-11T03:00:46.638Z,21.47
2023-02-11T03:03:38.023Z,20.67
2023-02-11T03:06:42.273Z,20.73
2023-02-11T03:09:32.461Z,22.23
2023-02-11T03:12:02.428Z,23.00
2023-02-11T03:14:30.916Z,21.10
2023-02-11T03:17:00.755Z,22.57
2023-02-11T03:19:33.233Z,22.17
2023-02-11T03:22:00.779Z,21.27
2023-02-11T03:24:31.767Z,20.40
2023-02-11T03:27:03.535Z,21.37
2023-02-11T03:29:42.403Z,21.53
2023-02-11T03:32:25.484Z,22.67
2023-02-11T03:34:57.548Z,24.07
2023-02-11T03:37:27.988Z,25.67
2023-02-11T03:40:11.349Z,25.83
2023-02-11T03:42:51.622Z,24.43
2023-02-11T03:45:22.008Z,24.60
2023-02-11T03:48:00.340Z,23.43
2023-02-11T03:50:30.051Z,22.53
2023-02-11T03:52:58.918Z,23.60
2023-02-11T03:55:26.984Z,22.83
2023-02-11T03:57:54.181Z,23.07
2023-02-11T04:00:20.690Z,24.77
2023-02-11T04:02:47.245Z,23.67
2023-02-11T04:05:16.365Z,23.57
2023-02-11T04:07:42.869Z,23.63
2023-02-11T04:10:09.464Z,22.67
2023-02-11T04:12:36.952Z,21.73
2023-02-11T04:15:03.568Z,22.37
2023-02-11T04:17:30.041Z,22.70
2023-02-11T04:19:57.083Z,22.47
2023-02-11T04:22:23.601Z,22.53
2023-02-11T04:24:50.024Z,22.73
2023-02-11T04:27:16.858Z,22.93
2023-02-11T04:29:43.364Z,22.97
2023-02-11T04:32:11.517Z,22.00
2023-02-11T04:34:38.232Z,20.63
2023-02-11T04:37:04.781Z,20.90
2023-02-11T04:39:31.257Z,19.53
2023-02-11T04:41:57.730Z,20.33
2023-02-11T04:44:24.182Z,19.50
2023-02-11T04:46:50.619Z,20.17
2023-02-11T04:49:17.340Z,18.00
2023-02-11T04:51:49.317Z,18.47
2023-02-11T04:54:16.760Z,19.70
2023-02-11T04:56:43.250Z,18.37
2023-02-11T04:59:09.796Z,17.30
2023-02-11T05:01:36.316Z,18.47
2023-02-11T05:04:02.879Z,18.37
2023-02-11T05:06:29.339Z,18.23
2023-02-11T05:08:56.376Z,17.60
2023-02-11T05:11:24.401Z,17.43
2023-02-11T05:13:51.508Z,18.07
2023-02-11T05:16:18.728Z,16.60
2023-02-11T05:18:45.505Z,16.80
2023-02-11T05:21:15.920Z,16.37
2023-02-11T05:23:42.580Z,17.23
2023-02-11T05:26:09.716Z,15.83
2023-02-11T05:28:36.344Z,17.13
2023-02-11T05:31:03.511Z,17.00
2023-02-11T05:33:30.026Z,16.27
2023-02-11T05:36:04.453Z,16.00
2023-02-11T05:38:30.900Z,17.13
2023-02-11T05:40:57.382Z,16.50
2023-02-11T05:43:23.903Z,16.33
2023-02-11T05:45:50.767Z,15.97
2023-02-11T05:48:17.825Z,15.03
2023-02-11T05:50:44.784Z,16.17
2023-02-11T05:53:11.733Z,15.03
2023-02-11T05:55:38.399Z,18.17
2023-02-11T05:58:05.970Z,23.93
2023-02-11T06:00:32.453Z,23.13
2023-02-11T06:02:59.012Z,21.33
2023-02-11T06:05:26.174Z,21.03
2023-02-11T06:07:52.876Z,20.10
2023-02-11T06:10:19.338Z,18.80
2023-02-11T06:12:46.876Z,16.70
2023-02-11T06:15:13.439Z,14.93
2023-02-11T06:17:39.985Z,15.90
2023-02-11T06:20:09.308Z,15.80
2023-02-11T06:22:35.809Z,15.17
2023-02-11T06:25:02.522Z,14.87
2023-02-11T06:27:29.753Z,14.90
2023-02-11T06:29:56.323Z,15.30
2023-02-11T06:32:42.707Z,14.30
2023-02-11T06:35:11.773Z,15.30
2023-02-11T06:37:38.943Z,14.30
2023-02-11T06:40:06.094Z,15.60
2023-02-11T06:42:32.613Z,15.27
2023-02-11T06:44:59.114Z,16.20
2023-02-11T06:47:26.310Z,14.47
2023-02-11T06:49:52.748Z,15.73
2023-02-11T06:52:19.174Z,14.20
2023-02-11T06:54:46.407Z,15.80
2023-02-11T06:57:12.840Z,15.53
2023-02-11T06:59:39.412Z,16.60
2023-02-11T07:02:05.977Z,16.00
2023-02-11T07:04:32.953Z,15.43
2023-02-11T07:06:59.380Z,14.17
2023-02-11T07:09:25.856Z,16.03
2023-02-11T07:11:52.446Z,14.77
2023-02-11T07:14:19.102Z,15.73
2023-02-11T07:16:46.024Z,14.77
2023-02-11T07:19:12.519Z,15.53
2023-02-11T07:21:38.931Z,16.23
2023-02-11T07:24:11.274Z,15.50
2023-02-11T07:26:38.151Z,14.70
2023-02-11T07:29:04.887Z,15.07
2023-02-11T07:31:31.884Z,15.40
2023-02-11T07:34:00.898Z,15.97
2023-02-11T07:36:29.577Z,15.70
2023-02-11T07:38:56.311Z,15.90
2023-02-11T07:41:24.124Z,15.83
2023-02-11T07:43:50.601Z,15.93
2023-02-11T07:46:23.381Z,15.47
2023-02-11T07:48:49.998Z,15.23
2023-02-11T07:51:25.231Z,14.83
2023-02-11T07:53:52.082Z,15.87
2023-02-11T07:56:20.323Z,15.60
2023-02-11T07:58:47.340Z,15.63
2023-02-11T08:01:27.142Z,16.13
2023-02-11T08:03:55.513Z,17.20
2023-02-11T08:06:24.250Z,15.33
2023-02-11T08:08:51.493Z,14.40
2023-02-11T08:11:22.152Z,13.77
2023-02-11T08:13:48.850Z,15.20
2023-02-11T08:16:19.863Z,13.57
2023-02-11T08:18:47.916Z,14.63
2023-02-11T08:21:14.356Z,14.73
2023-02-11T08:23:42.675Z,14.37
2023-02-11T08:26:15.696Z,14.03
2023-02-11T08:28:43.726Z,15.10
2023-02-11T08:31:21.956Z,14.00
2023-02-11T08:33:49.160Z,14.50
2023-02-11T08:36:18.609Z,13.57
2023-02-11T08:38:45.552Z,14.30
2023-02-11T08:41:12.121Z,14.47
2023-02-11T08:43:41.598Z,14.17
2023-02-11T08:46:10.287Z,14.37
2023-02-11T08:48:38.095Z,13.20
2023-02-11T08:51:14.673Z,13.93
2023-02-11T08:53:41.323Z,15.43
2023-02-11T08:56:12.190Z,14.30
2023-02-11T08:58:40.248Z,14.07
2023-02-11T09:01:12.227Z,15.03
2023-02-11T09:03:38.742Z,14.60
2023-02-11T09:06:07.338Z,15.80
2023-02-11T09:08:36.021Z,14.57
2023-02-11T09:11:03.722Z,15.13
2023-02-11T09:13:31.092Z,15.10
2023-02-11T09:15:59.081Z,16.33
2023-02-11T09:18:25.676Z,14.73
2023-02-11T09:20:52.752Z,16.03
2023-02-11T09:23:19.608Z,14.87
2023-02-11T09:25:46.208Z,14.60
2023-02-11T09:28:12.734Z,15.53
2023-02-11T09:30:39.843Z,15.80
2023-02-11T09:33:06.334Z,15.80
2023-02-11T09:35:34.141Z,16.43
2023-02-11T09:38:00.695Z,15.00
2023-02-11T09:40:27.174Z,15.70
2023-02-11T09:43:18.439Z,15.97
2023-02-11T09:45:45.327Z,16.50
2023-02-11T09:48:18.865Z,15.67
2023-02-11T09:50:55.927Z,15.60
2023-02-11T09:53:25.893Z,15.10
2023-02-11T09:55:55.826Z,15.50
2023-02-11T09:58:34.444Z,16.17
2023-02-11T10:01:30.578Z,14.87
2023-02-11T10:04:14.499Z,15.50
2023-02-11T10:06:46.749Z,14.90
2023-02-11T10:09:25.696Z,14.60
2023-02-11T10:12:01.914Z,14.47
2023-02-11T10:14:59.869Z,16.20
2023-02-11T10:17:32.198Z,14.43
2023-02-11T10:20:15.144Z,14.80
2023-02-11T10:22:49.338Z,15.13
2023-02-11T10:25:29.826Z,14.57
2023-02-11T10:27:59.719Z,14.10
2023-02-11T10:30:34.734Z,14.70
2023-02-11T10:33:06.443Z,14.40
2023-02-11T10:35:33.388Z,14.57
2023-02-11T10:38:00.592Z,17.30
2023-02-11T10:40:30.301Z,17.50
2023-02-11T10:43:05.868Z,18.33
2023-02-11T10:45:36.565Z,15.17
2023-02-11T10:48:38.436Z,15.57
2023-02-11T10:51:12.300Z,16.67
2023-02-11T10:53:40.945Z,17.40
2023-02-11T10:56:10.538Z,19.30
2023-02-11T10:58:46.320Z,24.10
2023-02-11T11:01:23.890Z,17.07
2023-02-11T11:03:52.865Z,17.30
2023-02-11T11:06:31.550Z,24.60
2023-02-11T11:08:58.592Z,21.50
2023-02-11T11:11:26.661Z,25.43
2023-02-11T11:13:53.011Z,16.97
2023-02-11T11:16:32.524Z,16.70
2023-02-11T11:19:08.132Z,18.20
2023-02-11T11:21:50.144Z,16.50
2023-02-11T11:24:31.146Z,22.10
2023-02-11T11:27:01.377Z,19.73
2023-02-11T11:29:48.331Z,17.63
2023-02-11T11:32:25.376Z,17.53
2023-02-11T11:34:56.327Z,22.67
2023-02-11T11:37:26.658Z,18.73
2023-02-11T11:39:59.107Z,17.77
2023-02-11T11:42:32.335Z,20.17
2023-02-11T11:45:20.065Z,19.40
2023-02-11T11:47:58.245Z,16.67
2023-02-11T11:50:33.173Z,18.43
2023-02-11T11:53:42.440Z,18.23
2023-02-11T11:56:19.640Z,16.47
2023-02-11T11:58:46.393Z,16.03
2023-02-11T12:01:18.588Z,17.03
2023-02-11T12:03:49.745Z,16.60
2023-02-11T12:06:25.207Z,16.93
2023-02-11T12:09:09.822Z,16.37
2023-02-11T12:11:37.049Z,16.40
2023-02-11T12:14:11.989Z,16.87
2023-02-11T12:16:51.906Z,17.10
2023-02-11T12:19:31.718Z,16.33
2023-02-11T12:22:19.835Z,16.90
2023-02-11T12:25:04.289Z,16.00
2023-02-11T12:27:46.065Z,17.50
2023-02-11T12:30:50.325Z,17.23
2023-02-11T12:33:49.580Z,16.73
2023-02-11T12:36:43.480Z,16.40
2023-02-11T12:39:40.672Z,17.40
2023-02-11T12:42:57.023Z,17.77
2023-02-11T12:45:38.658Z,18.13
2023-02-11T12:48:35.895Z,18.37
2023-02-11T12:51:24.220Z,17.20
2023-02-11T12:54:08.304Z,16.47
2023-02-11T12:56:45.817Z,17.70
2023-02-11T12:59:50.062Z,17.80
2023-02-11T13:02:45.477Z,17.83
2023-02-11T13:05:30.699Z,16.30
2023-02-11T13:08:35.486Z,17.90
2023-02-11T13:11:14.402Z,16.90
2023-02-11T13:13:55.851Z,17.70
2023-02-11T13:16:48.114Z,16.80
2023-02-11T13:19:24.756Z,17.47
2023-02-11T13:22:06.322Z,17.13
2023-02-11T13:24:47.900Z,17.93
2023-02-11T13:27:38.854Z,17.17
2023-02-11T13:30:23.347Z,17.00
2023-02-11T13:32:55.769Z,16.63
2023-02-11T13:35:39.900Z,15.37
2023-02-11T13:38:22.578Z,16.03
2023-02-11T13:41:04.991Z,15.50
2023-02-11T13:43:34.344Z,14.37
2023-02-11T13:46:21.211Z,14.10
2023-02-11T13:48:53.029Z,12.03
2023-02-11T13:51:36.655Z,11.70
2023-02-11T13:54:05.149Z,11.73
2023-02-11T13:56:34.756Z,11.13
2023-02-11T13:59:25.496Z,11.43
2023-02-11T14:02:23.658Z,10.90
2023-02-11T14:05:37.835Z,10.90
2023-02-11T14:08:33.229Z,9.93
2023-02-11T14:11:01.007Z,10.50
2023-02-11T14:13:46.982Z,9.57
2023-02-11T14:16:36.319Z,9.67
2023-02-11T14:19:03.910Z,10.07
2023-02-11T14:21:36.823Z,9.73
2023-02-11T14:24:04.790Z,9.73
2023-02-11T14:27:00.825Z,9.67
2023-02-11T14:29:43.901Z,10.60
2023-02-11T14:32:31.502Z,10.23
2023-02-11T14:35:25.910Z,10.27
2023-02-11T14:38:18.556Z,10.83
2023-02-11T14:40:58.483Z,10.03
2023-02-11T14:43:30.727Z,10.40
2023-02-11T14:45:58.606Z,10.27
2023-02-11T14:48:31.591Z,11.17
2023-02-11T14:51:02.630Z,11.40
2023-02-11T14:53:31.745Z,10.90
2023-02-11T14:55:58.334Z,10.23
2023-02-11T14:58:27.756Z,9.40
2023-02-11T15:01:02.118Z,10.40
2023-02-11T15:03:49.518Z,11.17
2023-02-11T15:06:31.975Z,10.27
2023-02-11T15:09:02.629Z,10.90
2023-02-11T15:11:34.511Z,10.67
2023-02-11T15:14:30.407Z,9.53
2023-02-11T15:17:01.155Z,10.67
2023-02-11T15:19:41.474Z,10.10
2023-02-11T15:22:20.052Z,9.50
2023-02-11T15:24:58.454Z,9.30
2023-02-11T15:27:25.805Z,9.23
2023-02-11T15:29:52.509Z,10.00
2023-02-11T15:32:25.194Z,9.47
2023-02-11T15:34:54.448Z,9.97
2023-02-11T15:37:29.735Z,9.90
2023-02-11T15:40:10.817Z,9.80
2023-02-11T15:42:51.895Z,10.67
2023-02-11T15:45:29.510Z,11.10
2023-02-11T15:48:18.933Z,11.67
2023-02-11T15:50:54.739Z,10.20
2023-02-11T15:53:28.918Z,11.57
2023-02-11T15:56:20.451Z,10.67
2023-02-11T15:58:49.377Z,11.60
2023-02-11T16:01:16.011Z,11.07
2023-02-11T16:03:43.752Z,10.63
2023-02-11T16:06:18.820Z,11.13
2023-02-11T16:09:08.222Z,10.97
2023-02-11T16:11:56.426Z,11.37
2023-02-11T16:14:23.304Z,12.73
2023-02-11T16:16:56.519Z,11.80
2023-02-11T16:19:25.888Z,12.87
2023-02-11T16:21:54.021Z,12.67
2023-02-11T16:24:35.538Z,12.10
2023-02-11T16:27:18.415Z,11.23
2023-02-11T16:29:47.511Z,12.13
2023-02-11T16:32:18.325Z,11.60
2023-02-11T16:34:45.113Z,11.33
2023-02-11T16:37:11.808Z,12.63
2023-02-11T16:39:38.341Z,12.07
2023-02-11T16:42:07.581Z,11.83
2023-02-11T16:44:34.799Z,11.93
2023-02-11T16:47:05.895Z,12.20
2023-02-11T16:49:41.570Z,11.13
2023-02-11T16:52:12.640Z,11.17
2023-02-11T16:54:39.259Z,16.40
2023-02-11T16:57:15.924Z,14.87
2023-02-11T16:59:42.812Z,15.10
2023-02-11T17:02:15.560Z,13.00
2023-02-11T17:04:42.837Z,12.80
2023-02-11T17:07:09.324Z,12.07
2023-02-11T17:09:36.044Z,13.13
2023-02-11T17:12:02.481Z,11.60
2023-02-11T17:14:29.144Z,11.90
2023-02-11T17:16:56.410Z,11.37
2023-02-11T17:19:23.077Z,10.37
2023-02-11T17:21:52.554Z,9.47
2023-02-11T17:24:20.998Z,8.20
2023-02-11T17:26:48.108Z,8.17
2023-02-11T17:29:18.482Z,9.63
2023-02-11T17:31:45.385Z,10.07
2023-02-11T17:34:12.283Z,10.03
2023-02-11T17:36:41.231Z,15.53
2023-02-11T17:39:08.837Z,15.57
2023-02-11T17:41:36.796Z,13.90
2023-02-11T17:44:03.426Z,13.60
2023-02-11T17:46:29.858Z,13.50
2023-02-11T17:48:59.570Z,13.40
2023-02-11T17:51:32.416Z,13.73
2023-02-11T17:54:01.071Z,17.20
2023-02-11T17:56:29.871Z,16.47
2023-02-11T17:58:56.307Z,16.13
2023-02-11T18:01:23.111Z,16.30
2023-02-11T18:03:49.677Z,16.23
2023-02-11T18:06:16.724Z,15.70
2023-02-11T18:08:43.378Z,15.60
2023-02-11T18:11:11.876Z,15.53
2023-02-11T18:13:38.548Z,15.17
2023-02-11T18:16:06.026Z,13.87
2023-02-11T18:18:32.497Z,14.57
2023-02-11T18:21:00.890Z,14.33
2023-02-11T18:23:28.046Z,14.03
2023-02-11T18:25:54.511Z,16.53
2023-02-11T18:28:21.098Z,15.47
2023-02-11T18:30:47.919Z,14.07
2023-02-11T18:33:14.475Z,14.83
2023-02-11T18:35:42.102Z,15.60
2023-02-11T18:38:09.598Z,16.77
2023-02-11T18:40:40.205Z,16.50
2023-02-11T18:43:07.348Z,16.20
2023-02-11T18:45:34.311Z,17.70
2023-02-11T18:48:03.508Z,16.60
2023-02-11T18:50:29.907Z,17.60
2023-02-11T18:52:56.637Z,18.20
2023-02-11T18:55:25.676Z,19.97
2023-02-11T18:57:52.898Z,18.47
2023-02-11T19:00:20.594Z,14.20
2023-02-11T19:02:47.055Z,14.63
2023-02-11T19:05:13.756Z,16.77
2023-02-11T19:07:40.218Z,16.03
2023-02-11T19:10:07.371Z,15.90
2023-02-11T19:12:34.111Z,17.47
2023-02-11T19:15:00.830Z,16.40
2023-02-11T19:17:27.498Z,16.23
2023-02-11T19:19:54.006Z,16.90
2023-02-11T19:22:20.447Z,18.80
2023-02-11T19:24:46.933Z,18.20
2023-02-11T19:27:13.451Z,17.20
2023-02-11T19:29:39.904Z,16.37
2023-02-11T19:32:06.504Z,17.93
2023-02-11T19:34:33.891Z,17.73
2023-02-11T19:37:01.580Z,18.87
2023-02-11T19:39:28.113Z,21.37
2023-02-11T19:41:54.743Z,20.00
2023-02-11T19:44:21.491Z,20.27
2023-02-11T19:46:50.133Z,15.70
2023-02-11T19:49:23.620Z,14.23
2023-02-11T19:51:51.264Z,14.10
2023-02-11T19:54:17.822Z,18.40
2023-02-11T19:56:45.276Z,18.83
2023-02-11T19:59:13.769Z,19.13
2023-02-11T20:01:40.935Z,18.20
2023-02-11T20:04:08.205Z,18.07
2023-02-11T20:06:36.115Z,18.67
2023-02-11T20:09:07.040Z,21.47
2023-02-11T20:11:34.680Z,20.43
2023-02-11T20:14:01.146Z,19.77
2023-02-11T20:16:46.171Z,17.83
2023-02-11T20:19:18.730Z,18.50
2023-02-11T20:21:48.027Z,19.17
2023-02-11T20:24:16.339Z,19.83
2023-02-11T20:26:45.330Z,20.67
2023-02-11T20:29:12.094Z,20.37
2023-02-11T20:31:38.724Z,17.80
2023-02-11T20:34:05.250Z,16.70
2023-02-11T20:36:35.552Z,18.00
2023-02-11T20:39:04.869Z,17.67
2023-02-11T20:41:34.474Z,17.30
2023-02-11T20:44:04.171Z,16.97
2023-02-11T20:46:32.896Z,19.73
2023-02-11T20:49:00.668Z,19.53
2023-02-11T20:51:29.720Z,27.07
2023-02-11T20:53:56.567Z,23.13
2023-02-11T20:56:29.314Z,24.00
2023-02-11T20:58:58.001Z,21.37
2023-02-11T21:01:27.491Z,18.27
2023-02-11T21:04:03.579Z,18.27
2023-02-11T21:06:36.104Z,19.40
2023-02-11T21:09:06.106Z,17.10
2023-02-11T21:11:33.217Z,17.00
2023-02-11T21:14:00.509Z,16.80
2023-02-11T21:16:27.230Z,16.97
2023-02-11T21:18:55.325Z,20.97
2023-02-11T21:21:22.415Z,19.93
2023-02-11T21:23:49.158Z,18.10
2023-02-11T21:26:16.895Z,19.10
2023-02-11T21:28:44.255Z,19.70
2023-02-11T21:31:19.433Z,20.53
2023-02-11T21:33:47.181Z,21.07
2023-02-11T21:36:14.979Z,21.77
2023-02-11T21:38:41.855Z,20.47
2023-02-11T21:41:08.318Z,18.90
2023-02-11T21:43:34.952Z,18.43
2023-02-11T21:46:07.561Z,20.97
2023-02-11T21:48:34.029Z,20.03
2023-02-11T21:51:05.431Z,20.37
2023-02-11T21:53:32.167Z,20.77
2023-02-11T21:56:14.533Z,18.67
2023-02-11T21:58:41.375Z,21.97
2023-02-11T22:01:20.285Z,21.27
2023-02-11T22:03:47.525Z,21.00
2023-02-11T22:06:17.424Z,22.77
2023-02-11T22:08:43.953Z,22.10
2023-02-11T22:11:12.542Z,18.53
2023-02-11T22:13:39.947Z,21.47
2023-02-11T22:16:09.432Z,22.00
2023-02-11T22:18:36.523Z,23.13
2023-02-11T22:21:06.550Z,22.10
2023-02-11T22:23:33.769Z,24.47
2023-02-11T22:26:05.516Z,24.70
2023-02-11T22:28:32.045Z,24.30
2023-02-11T22:30:59.438Z,27.10
2023-02-11T22:33:27.513Z,34.70
2023-02-11T22:36:01.759Z,33.20
2023-02-11T22:38:32.229Z,32.37
2023-02-11T22:41:00.682Z,27.93
2023-02-11T22:43:30.036Z,25.43
2023-02-11T22:46:00.125Z,26.93
2023-02-11T22:48:26.942Z,30.80
2023-02-11T22:50:53.536Z,30.57
2023-02-11T22:53:20.053Z,29.47
2023-02-11T22:55:46.505Z,29.13
2023-02-11T22:58:12.954Z,21.17
2023-02-11T23:00:41.238Z,21.80
2023-02-11T23:03:08.585Z,20.50
2023-02-11T23:05:41.484Z,18.33
2023-02-11T23:08:10.241Z,18.50
2023-02-11T23:10:38.401Z,17.47
2023-02-11T23:13:05.919Z,15.23
2023-02-11T23:15:33.185Z,15.20
2023-02-11T23:18:00.719Z,16.77
2023-02-11T23:20:27.187Z,18.30
2023-02-11T23:22:53.723Z,14.83
2023-02-11T23:25:20.123Z,17.70
2023-02-11T23:27:46.759Z,17.00
2023-02-11T23:30:13.677Z,16.27
2023-02-11T23:32:41.142Z,15.83
2023-02-11T23:35:08.079Z,18.47
2023-02-11T23:37:34.659Z,18.83
2023-02-11T23:40:01.125Z,19.07
2023-02-11T23:42:28.642Z,18.33
2023-02-11T23:44:55.196Z,18.53
2023-02-11T23:47:21.667Z,18.80
2023-02-11T23:49:48.169Z,19.53
2023-02-11T23:52:15.623Z,18.60
2023-02-11T23:54:43.297Z,17.90
2023-02-11T23:57:09.717Z,17.90
2023-02-11T23:59:36.179Z,17.43
